createdAt,value
2023-04-25T00:00:22.359Z,100771.94
2023-04-25T00:02:49.690Z,100770.72
2023-04-25T00:05:17.331Z,100766.50
2023-04-25T00:07:59.331Z,100762.25
2023-04-25T00:10:26.142Z,100761.59
2023-04-25T00:12:52.940Z,100756.84
2023-04-25T00:15:19.753Z,100773.59
2023-04-25T00:17:46.875Z,100768.78
2023-04-25T00:20:13.983Z,100761.88
2023-04-25T00:22:40.792Z,100764.59
2023-04-25T00:25:07.901Z,100771.09
2023-04-25T00:27:34.660Z,100761.47
2023-04-25T00:30:01.681Z,100763.53
2023-04-25T00:32:28.509Z,100757.94
2023-04-25T00:34:56.938Z,100754.38
2023-04-25T00:37:23.856Z,100757.91
2023-04-25T00:39:50.867Z,100763.53
2023-04-25T00:42:17.723Z,100769.31
2023-04-25T00:44:46.291Z,100761.00
2023-04-25T00:47:13.500Z,100765.75
2023-04-25T00:49:40.377Z,100771.50
2023-04-25T00:52:07.196Z,100763.69
2023-04-25T00:54:33.977Z,100761.75
2023-04-25T00:57:02.116Z,100760.56
2023-04-25T00:59:29.175Z,100766.72
2023-04-25T01:01:56.165Z,100767.53
2023-04-25T01:04:23.177Z,100771.94
2023-04-25T01:06:50.821Z,100765.94
2023-04-25T01:09:17.821Z,100762.88
2023-04-25T01:11:45.352Z,100768.31
2023-04-25T01:14:12.143Z,100764.00
2023-04-25T01:16:39.256Z,100780.25
2023-04-25T01:19:12.059Z,100777.03
2023-04-25T01:21:38.921Z,100773.84
2023-04-25T01:24:06.349Z,100775.88
2023-04-25T01:26:34.257Z,100771.31
2023-04-25T01:29:01.225Z,100771.75
2023-04-25T01:31:28.848Z,100774.81
2023-04-25T01:33:55.754Z,100780.72
2023-04-25T01:36:23.348Z,100772.91
2023-04-25T01:38:50.331Z,100787.03
2023-04-25T01:41:18.917Z,100779.34
2023-04-25T01:43:45.909Z,100780.31
2023-04-25T01:46:13.548Z,100781.06
2023-04-25T01:48:40.543Z,100795.88
2023-04-25T01:51:07.502Z,100790.78
2023-04-25T01:53:34.779Z,100793.38
2023-04-25T01:56:04.266Z,100793.38
2023-04-25T01:58:34.324Z,100795.28
2023-04-25T02:01:10.236Z,100795.28
2023-04-25T02:03:44.459Z,100801.00
2023-04-25T02:06:23.671Z,100801.84
2023-04-25T02:08:52.647Z,100805.09
2023-04-25T02:11:19.397Z,100808.34
2023-04-25T02:13:54.986Z,100795.34
2023-04-25T02:16:37.275Z,100797.28
2023-04-25T02:19:04.253Z,100796.44
2023-04-25T02:21:31.531Z,100801.00
2023-04-25T02:23:58.620Z,100800.09
2023-04-25T02:26:27.986Z,100804.56
2023-04-25T02:28:56.005Z,100799.34
2023-04-25T02:31:23.058Z,100793.38
2023-04-25T02:33:51.473Z,100804.66
2023-04-25T02:36:18.389Z,100805.69
2023-04-25T02:38:45.240Z,100807.16
2023-04-25T02:41:12.118Z,100800.63
2023-04-25T02:43:38.816Z,100801.59
2023-04-25T02:46:05.645Z,100805.84
2023-04-25T02:48:32.571Z,100811.94
2023-04-25T02:50:59.522Z,100810.72
2023-04-25T02:53:26.224Z,100806.50
2023-04-25T02:55:54.355Z,100801.59
2023-04-25T02:58:21.310Z,100796.91
2023-04-25T03:00:51.525Z,100794.34
2023-04-25T03:03:19.247Z,100804.28
2023-04-25T03:05:47.868Z,100800.22
2023-04-25T03:08:15.805Z,100795.81
2023-04-25T03:10:43.751Z,100793.84
2023-04-25T03:13:11.589Z,100802.47
2023-04-25T03:15:40.372Z,100802.78
2023-04-25T03:18:07.676Z,100795.81
2023-04-25T03:20:34.505Z,100805.25
2023-04-25T03:23:01.279Z,100801.41
2023-04-25T03:25:29.817Z,100808.66
2023-04-25T03:27:56.663Z,100802.81
2023-04-25T03:30:23.715Z,100807.09
2023-04-25T03:32:51.050Z,100812.16
2023-04-25T03:35:18.214Z,100813.69
2023-04-25T03:37:46.624Z,100812.72
2023-04-25T03:40:18.867Z,100810.50
2023-04-25T03:43:08.766Z,100822.81
2023-04-25T03:45:36.720Z,100821.22
2023-04-25T03:48:03.621Z,100819.34
2023-04-25T03:50:31.414Z,100829.97
2023-04-25T03:52:58.239Z,100830.63
2023-04-25T03:55:29.701Z,100830.13
2023-04-25T03:57:58.977Z,100835.06
2023-04-25T04:00:26.485Z,100827.06
2023-04-25T04:02:53.840Z,100832.34
2023-04-25T04:05:20.806Z,100833.53
2023-04-25T04:07:53.278Z,100838.63
2023-04-25T04:10:20.165Z,100837.34
2023-04-25T04:12:47.040Z,100842.78
2023-04-25T04:15:13.930Z,100841.50
2023-04-25T04:17:42.258Z,100842.44
2023-04-25T04:20:09.941Z,100847.22
2023-04-25T04:22:38.451Z,100840.41
2023-04-25T04:25:11.127Z,100856.66
2023-04-25T04:28:12.070Z,100846.75
2023-04-25T04:30:56.693Z,100844.84
2023-04-25T04:33:24.654Z,100855.22
2023-04-25T04:35:57.511Z,100857.91
2023-04-25T04:38:24.971Z,100860.00
2023-04-25T04:40:53.603Z,100873.06
2023-04-25T04:43:50.001Z,100856.34
2023-04-25T04:46:43.386Z,100871.69
2023-04-25T04:49:31.300Z,100869.75
2023-04-25T04:52:20.374Z,100873.88
2023-04-25T04:55:04.873Z,100875.78
2023-04-25T04:57:44.177Z,100880.44
2023-04-25T05:00:30.807Z,100885.69
2023-04-25T05:03:16.226Z,100885.06
2023-04-25T05:06:03.389Z,100893.88
2023-04-25T05:09:09.035Z,100895.63
2023-04-25T05:11:54.219Z,100907.75
2023-04-25T05:14:36.375Z,100908.06
2023-04-25T05:17:12.791Z,100925.13
2023-04-25T05:19:58.114Z,100919.84
2023-04-25T05:22:54.004Z,100926.50
2023-04-25T05:25:41.299Z,100929.75
2023-04-25T05:28:25.389Z,100927.69
2023-04-25T05:31:08.077Z,100936.63
2023-04-25T05:33:55.308Z,100928.97
2023-04-25T05:36:23.517Z,100932.66
2023-04-25T05:38:50.771Z,100937.03
2023-04-25T05:41:20.981Z,100930.72
2023-04-25T05:43:56.249Z,100938.91
2023-04-25T05:46:33.564Z,100934.56
2023-04-25T05:49:27.034Z,100940.94
2023-04-25T05:52:03.381Z,100950.34
2023-04-25T05:54:32.897Z,100953.28
2023-04-25T05:57:01.450Z,100952.47
2023-04-25T05:59:28.754Z,100966.03
2023-04-25T06:01:55.961Z,100958.69
2023-04-25T06:04:23.491Z,100961.72
2023-04-25T06:06:50.548Z,100961.22
2023-04-25T06:09:17.357Z,100956.31
2023-04-25T06:11:44.465Z,100971.16
2023-04-25T06:14:11.709Z,100962.53
2023-04-25T06:16:45.325Z,100974.34
2023-04-25T06:19:12.055Z,100976.53
2023-04-25T06:21:38.763Z,100968.13
2023-04-25T06:24:05.925Z,100971.78
2023-04-25T06:26:32.684Z,100974.97
2023-04-25T06:28:59.586Z,100974.00
2023-04-25T06:31:26.992Z,100977.84
2023-04-25T06:33:55.999Z,100988.25
2023-04-25T06:36:26.222Z,100989.78
2023-04-25T06:38:56.689Z,100989.03
2023-04-25T06:41:23.498Z,100994.94
2023-04-25T06:43:50.195Z,100995.56
2023-04-25T06:46:25.113Z,100996.03
2023-04-25T06:48:52.577Z,100994.78
2023-04-25T06:51:22.176Z,101009.44
2023-04-25T06:53:50.496Z,101009.94
2023-04-25T06:56:26.505Z,101008.69
2023-04-25T06:59:01.830Z,101021.47
2023-04-25T07:01:47.668Z,101023.22
2023-04-25T07:04:18.430Z,101026.06
2023-04-25T07:06:50.715Z,101038.56
2023-04-25T07:09:21.901Z,101029.28
2023-04-25T07:11:50.027Z,101025.13
2023-04-25T07:14:17.013Z,101032.00
2023-04-25T07:16:43.849Z,101040.63
2023-04-25T07:19:11.285Z,101038.53
2023-04-25T07:21:38.466Z,101041.75
2023-04-25T07:24:06.786Z,101034.56
2023-04-25T07:26:37.095Z,101035.34
2023-04-25T07:29:38.433Z,101044.31
2023-04-25T07:32:05.703Z,101047.63
2023-04-25T07:34:33.149Z,101045.72
2023-04-25T07:37:00.530Z,101048.91
2023-04-25T07:39:33.395Z,101041.72
2023-04-25T07:42:01.432Z,101050.06
2023-04-25T07:44:31.454Z,101060.13
2023-04-25T07:46:58.695Z,101047.94
2023-04-25T07:49:25.883Z,101056.84
2023-04-25T07:51:52.809Z,101058.44
2023-04-25T07:54:21.124Z,101062.44
2023-04-25T07:56:53.862Z,101062.41
2023-04-25T07:59:26.687Z,101064.66
2023-04-25T08:01:54.416Z,101063.81
2023-04-25T08:04:23.735Z,101065.31
2023-04-25T08:06:55.407Z,101066.91
2023-04-25T08:09:28.864Z,101068.88
2023-04-25T08:11:56.676Z,101087.75
2023-04-25T08:14:28.218Z,101083.31
2023-04-25T08:16:54.987Z,101092.09
2023-04-25T08:19:21.758Z,101093.03
2023-04-25T08:21:48.635Z,101102.00
2023-04-25T08:24:21.024Z,101112.34
2023-04-25T08:26:47.841Z,101114.28
2023-04-25T08:29:17.547Z,101125.41
2023-04-25T08:31:44.853Z,101132.81
2023-04-25T08:34:12.221Z,101133.16
2023-04-25T08:36:48.679Z,101132.94
2023-04-25T08:39:38.538Z,101147.06
2023-04-25T08:42:28.964Z,101145.16
2023-04-25T08:44:56.749Z,101152.94
2023-04-25T08:47:29.036Z,101147.69
2023-04-25T08:49:57.612Z,101147.22
2023-04-25T08:52:25.721Z,101141.16
2023-04-25T08:54:53.980Z,101143.22
2023-04-25T08:57:22.354Z,101152.16
2023-04-25T08:59:50.306Z,101157.63
2023-04-25T09:02:20.305Z,101157.88
2023-04-25T09:04:49.685Z,101160.50
2023-04-25T09:07:19.695Z,101158.19
2023-04-25T09:09:46.771Z,101173.66
2023-04-25T09:12:19.649Z,101160.19
2023-04-25T09:15:03.932Z,101165.88
2023-04-25T09:17:46.191Z,101174.88
2023-04-25T09:20:14.497Z,101170.41
2023-04-25T09:22:41.342Z,101178.69
2023-04-25T09:25:13.001Z,101173.63
2023-04-25T09:27:52.321Z,101173.41
2023-04-25T09:30:34.820Z,101181.47
2023-04-25T09:33:16.298Z,101197.31
2023-04-25T09:35:54.232Z,101194.03
2023-04-25T09:38:45.657Z,101192.03
2023-04-25T09:41:24.364Z,101200.81
2023-04-25T09:43:51.817Z,101198.56
2023-04-25T09:46:22.197Z,101199.66
2023-04-25T09:48:55.194Z,101215.63
2023-04-25T09:51:56.033Z,101220.91
2023-04-25T09:54:24.650Z,101214.53
2023-04-25T09:56:59.028Z,101220.09
2023-04-25T09:59:26.143Z,101227.53
2023-04-25T10:01:53.632Z,101215.59
2023-04-25T10:04:30.639Z,101223.31
2023-04-25T10:07:09.248Z,101223.81
2023-04-25T10:09:39.218Z,101221.63
2023-04-25T10:12:06.857Z,101228.16
2023-04-25T10:14:33.874Z,101213.78
2023-04-25T10:17:01.595Z,101221.25
2023-04-25T10:19:29.940Z,101223.53
2023-04-25T10:22:09.439Z,101223.34
2023-04-25T10:24:38.489Z,101213.47
2023-04-25T10:27:05.818Z,101211.66
2023-04-25T10:29:33.011Z,101204.66
2023-04-25T10:31:59.873Z,101213.59
2023-04-25T10:34:43.857Z,101218.38
2023-04-25T10:37:12.273Z,101227.75
2023-04-25T10:39:42.808Z,101224.66
2023-04-25T10:42:09.806Z,101217.72
2023-04-25T10:44:40.065Z,101232.56
2023-04-25T10:47:08.835Z,101216.94
2023-04-25T10:49:43.077Z,101225.59
2023-04-25T10:52:16.004Z,101220.78
2023-04-25T10:54:50.659Z,101220.91
2023-04-25T10:57:32.686Z,101224.34
2023-04-25T11:00:20.173Z,101223.97
2023-04-25T11:02:48.510Z,101220.78
2023-04-25T11:08:35.160Z,101230.22
2023-04-25T11:11:02.444Z,101240.88
2023-04-25T11:13:34.316Z,101229.81
2023-04-25T11:19:00.391Z,101233.53
2023-04-25T11:21:32.248Z,101230.91
2023-04-25T11:24:00.602Z,101242.50
2023-04-25T11:26:27.439Z,101230.13
2023-04-25T11:28:59.477Z,101234.94
2023-04-25T11:31:26.807Z,101250.31
2023-04-25T11:33:55.804Z,101244.44
2023-04-25T11:36:24.629Z,101251.75
2023-04-25T11:38:52.863Z,101248.66
2023-04-25T11:41:23.312Z,101238.69
2023-04-25T11:43:52.892Z,101246.56
2023-04-25T11:46:21.346Z,101241.00
2023-04-25T11:48:49.214Z,101245.53
2023-04-25T11:51:16.578Z,101245.94
2023-04-25T11:53:43.959Z,101249.78
2023-04-25T11:56:12.451Z,101242.91
2023-04-25T11:59:07.674Z,101249.34
2023-04-25T12:01:41.715Z,101261.84
2023-04-25T12:04:19.747Z,101260.44
2023-04-25T12:06:48.954Z,101262.81
2023-04-25T12:09:29.444Z,101273.16
2023-04-25T12:11:57.399Z,101266.84
2023-04-25T12:14:32.920Z,101269.59
2023-04-25T12:17:01.695Z,101263.59
2023-04-25T12:19:34.635Z,101254.50
2023-04-25T12:22:04.974Z,101260.25
2023-04-25T12:24:38.418Z,101270.53
2023-04-25T12:27:07.336Z,101262.44
2023-04-25T12:29:48.628Z,101260.78
2023-04-25T12:32:17.950Z,101260.69
2023-04-25T12:34:45.058Z,101255.97
2023-04-25T12:37:12.503Z,101253.75
2023-04-25T12:39:39.259Z,101267.94
2023-04-25T12:42:09.289Z,101270.31
2023-04-25T12:44:36.690Z,101267.78
2023-04-25T12:47:04.530Z,101265.28
2023-04-25T12:49:31.507Z,101257.00
2023-04-25T12:51:58.395Z,101260.84
2023-04-25T12:54:26.621Z,101257.81
2023-04-25T12:56:53.729Z,101265.44
2023-04-25T12:59:21.585Z,101262.97
2023-04-25T13:01:48.600Z,101267.53
2023-04-25T13:04:16.149Z,101261.34
2023-04-25T13:06:43.524Z,101266.56
2023-04-25T13:09:13.480Z,101259.47
2023-04-25T13:11:41.523Z,101266.88
2023-04-25T13:14:09.011Z,101272.25
2023-04-25T13:16:36.095Z,101279.22
2023-04-25T13:19:04.045Z,101277.75
2023-04-25T13:21:33.853Z,101286.22
2023-04-25T13:24:00.797Z,101276.34
2023-04-25T13:26:27.624Z,101276.81
2023-04-25T13:28:54.385Z,101281.97
2023-04-25T13:31:21.140Z,101281.06
2023-04-25T13:33:48.346Z,101279.75
2023-04-25T13:36:15.596Z,101273.97
2023-04-25T13:38:45.081Z,101284.66
2023-04-25T13:41:16.841Z,101267.34
2023-04-25T13:43:43.849Z,101283.69
2023-04-25T13:46:30.004Z,101270.56
2023-04-25T13:49:09.982Z,101257.97
2023-04-25T13:51:39.478Z,101269.91
2023-04-25T13:54:06.286Z,101279.00
2023-04-25T13:56:33.265Z,101269.75
2023-04-25T13:59:00.125Z,101269.41
2023-04-25T14:01:29.122Z,101267.19
2023-04-25T14:03:56.171Z,101265.50
2023-04-25T14:06:25.004Z,101263.63
2023-04-25T14:08:52.272Z,101272.38
2023-04-25T14:11:25.337Z,101272.28
2023-04-25T14:13:52.337Z,101270.13
2023-04-25T14:16:19.559Z,101273.97
2023-04-25T14:18:46.542Z,101267.13
2023-04-25T14:21:13.497Z,101271.56
2023-04-25T14:23:40.282Z,101272.41
2023-04-25T14:26:07.106Z,101275.44
2023-04-25T14:28:36.549Z,101282.81
2023-04-25T14:31:04.086Z,101275.78
2023-04-25T14:33:31.713Z,101284.72
2023-04-25T14:35:58.496Z,101281.97
2023-04-25T14:38:26.608Z,101292.38
2023-04-25T14:40:57.333Z,101286.56
2023-04-25T14:43:24.141Z,101286.56
2023-04-25T14:45:51.098Z,101295.84
2023-04-25T14:48:20.508Z,101293.16
2023-04-25T14:50:47.636Z,101305.19
2023-04-25T14:53:14.526Z,101289.75
2023-04-25T14:55:41.479Z,101304.72
2023-04-25T14:58:08.480Z,101290.41
2023-04-25T15:00:36.645Z,101298.13
2023-04-25T15:03:06.352Z,101302.59
2023-04-25T15:05:33.126Z,101303.47
2023-04-25T15:07:59.953Z,101309.91
2023-04-25T15:10:27.702Z,101315.00
2023-04-25T15:12:54.659Z,101307.84
2023-04-25T15:15:26.624Z,101315.00
2023-04-25T15:17:59.087Z,101316.41
2023-04-25T15:20:26.816Z,101324.50
2023-04-25T15:22:53.684Z,101318.22
2023-04-25T15:25:20.550Z,101318.59
2023-04-25T15:27:49.407Z,101320.19
2023-04-25T15:30:17.554Z,101316.03
2023-04-25T15:32:48.357Z,101327.56
2023-04-25T15:35:16.128Z,101328.78
2023-04-25T15:37:43.261Z,101331.34
2023-04-25T15:40:13.733Z,101326.00
2023-04-25T15:42:43.467Z,101329.75
2023-04-25T15:45:11.454Z,101341.75
2023-04-25T15:47:39.001Z,101338.13
2023-04-25T15:50:09.527Z,101345.16
2023-04-25T15:52:37.562Z,101335.34
2023-04-25T15:55:04.996Z,101334.06
2023-04-25T15:57:33.904Z,101334.41
2023-04-25T16:00:03.130Z,101337.09
2023-04-25T16:02:39.350Z,101336.31
2023-04-25T16:05:06.738Z,101348.34
2023-04-25T16:07:36.347Z,101347.25
2023-04-25T16:10:03.254Z,101357.47
2023-04-25T16:12:31.124Z,101349.63
2023-04-25T16:14:58.367Z,101350.25
2023-04-25T16:17:33.293Z,101351.72
2023-04-25T16:20:02.154Z,101353.81
2023-04-25T16:22:29.047Z,101347.56
2023-04-25T16:24:55.753Z,101356.66
2023-04-25T16:27:22.545Z,101350.84
2023-04-25T16:29:51.582Z,101347.13
2023-04-25T16:32:18.481Z,101354.66
2023-04-25T16:34:45.631Z,101358.25
2023-04-25T16:37:15.750Z,101352.69
2023-04-25T16:39:42.601Z,101358.59
2023-04-25T16:42:09.227Z,101356.22
2023-04-25T16:44:38.122Z,101356.06
2023-04-25T16:47:06.162Z,101354.91
2023-04-25T16:49:33.482Z,101360.69
2023-04-25T16:52:00.289Z,101356.06
2023-04-25T16:54:27.942Z,101359.56
2023-04-25T16:56:54.777Z,101357.50
2023-04-25T16:59:21.449Z,101364.22
2023-04-25T17:01:48.961Z,101354.91
2023-04-25T17:04:15.980Z,101356.06
2023-04-25T17:06:43.124Z,101362.28
2023-04-25T17:09:10.581Z,101367.09
2023-04-25T17:11:37.800Z,101372.53
2023-04-25T17:14:04.942Z,101369.31
2023-04-25T17:16:36.690Z,101369.31
2023-04-25T17:19:05.014Z,101373.78
2023-04-25T17:21:32.177Z,101377.72
2023-04-25T17:23:59.291Z,101360.84
2023-04-25T17:26:26.682Z,101371.84
2023-04-25T17:28:54.383Z,101367.91
2023-04-25T17:31:23.630Z,101384.59
2023-04-25T17:33:50.801Z,101382.69
2023-04-25T17:36:18.118Z,101379.59
2023-04-25T17:38:44.811Z,101393.94
2023-04-25T17:41:13.221Z,101387.75
2023-04-25T17:43:40.241Z,101394.34
2023-04-25T17:46:07.115Z,101394.81
2023-04-25T17:48:34.051Z,101394.94
2023-04-25T17:51:02.689Z,101399.69
2023-04-25T17:53:29.424Z,101399.03
2023-04-25T17:55:56.480Z,101397.81
2023-04-25T17:58:23.205Z,101404.84
2023-04-25T18:00:50.138Z,101407.47
2023-04-25T18:03:17.426Z,101413.00
2023-04-25T18:05:44.269Z,101405.72
2023-04-25T18:08:11.041Z,101401.09
2023-04-25T18:10:39.031Z,101416.41
2023-04-25T18:13:05.706Z,101409.94
2023-04-25T18:15:32.661Z,101415.03
2023-04-25T18:17:59.679Z,101414.97
2023-04-25T18:20:28.558Z,101425.13
2023-04-25T18:22:55.296Z,101422.91
2023-04-25T18:25:22.134Z,101418.63
2023-04-25T18:27:50.701Z,101423.19
2023-04-25T18:30:17.613Z,101432.66
2023-04-25T18:32:47.448Z,101428.72
2023-04-25T18:35:14.262Z,101440.97
2023-04-25T18:37:42.329Z,101436.66
2023-04-25T18:40:13.669Z,101454.06
2023-04-25T18:42:40.488Z,101454.78
2023-04-25T18:45:07.923Z,101452.41
2023-04-25T18:47:34.682Z,101458.16
2023-04-25T18:50:01.529Z,101454.31
2023-04-25T18:52:28.544Z,101457.69
2023-04-25T18:54:55.323Z,101464.13
2023-04-25T18:57:22.241Z,101456.38
2023-04-25T18:59:49.244Z,101456.53
2023-04-25T19:02:16.698Z,101456.66
2023-04-25T19:04:43.987Z,101461.66
2023-04-25T19:07:10.904Z,101467.03
2023-04-25T19:09:38.705Z,101464.72
2023-04-25T19:12:05.888Z,101477.97
2023-04-25T19:14:33.656Z,101480.78
2023-04-25T19:17:00.828Z,101481.75
2023-04-25T19:19:27.985Z,101487.53
2023-04-25T19:21:54.821Z,101488.53
2023-04-25T19:24:22.195Z,101482.72
2023-04-25T19:26:49.009Z,101495.22
2023-04-25T19:29:16.194Z,101489.78
2023-04-25T19:31:44.627Z,101490.13
2023-04-25T19:34:23.617Z,101497.03
2023-04-25T19:36:52.822Z,101498.09
2023-04-25T19:39:20.723Z,101494.59
2023-04-25T19:41:47.531Z,101506.09
2023-04-25T19:44:14.300Z,101503.03
2023-04-25T19:46:42.235Z,101507.28
2023-04-25T19:49:09.602Z,101503.63
2023-04-25T19:51:37.596Z,101509.69
2023-04-25T19:54:07.037Z,101498.91
2023-04-25T19:56:33.937Z,101502.09
2023-04-25T19:59:00.825Z,101503.44
2023-04-25T20:01:28.045Z,101502.31
2023-04-25T20:03:55.365Z,101505.19
2023-04-25T20:06:22.356Z,101515.66
2023-04-25T20:08:50.613Z,101516.56
2023-04-25T20:11:17.720Z,101513.88
2023-04-25T20:13:45.034Z,101518.88
2023-04-25T20:16:12.249Z,101517.56
2023-04-25T20:18:40.357Z,101512.34
2023-04-25T20:21:08.600Z,101508.84
2023-04-25T20:23:35.535Z,101514.66
2023-04-25T20:26:04.731Z,101520.78
2023-04-25T20:28:31.781Z,101521.72
2023-04-25T20:30:59.801Z,101521.00
2023-04-25T20:33:26.831Z,101527.81
2023-04-25T20:35:54.177Z,101529.50
2023-04-25T20:38:21.003Z,101529.84
2023-04-25T20:40:47.989Z,101533.63
2023-04-25T20:43:15.229Z,101527.31
2023-04-25T20:45:42.032Z,101537.47
2023-04-25T20:48:08.760Z,101537.16
2023-04-25T20:50:35.583Z,101543.25
2023-04-25T20:53:03.549Z,101527.72
2023-04-25T20:55:30.895Z,101546.81
2023-04-25T20:57:57.958Z,101541.47
2023-04-25T21:00:29.669Z,101533.03
2023-04-25T21:02:57.676Z,101532.94
2023-04-25T21:05:24.925Z,101537.47
2023-04-25T21:07:54.605Z,101543.59
2023-04-25T21:10:22.111Z,101537.88
2023-04-25T21:12:49.737Z,101543.09
2023-04-25T21:15:22.713Z,101541.28
2023-04-25T21:17:52.316Z,101533.75
2023-04-25T21:20:21.369Z,101542.78
2023-04-25T21:22:51.803Z,101538.06
2023-04-25T21:25:25.435Z,101549.50
2023-04-25T21:27:53.150Z,101546.38
2023-04-25T21:30:23.361Z,101550.72
2023-04-25T21:32:51.411Z,101543.97
2023-04-25T21:35:19.929Z,101557.16
2023-04-25T21:37:47.246Z,101543.97
2023-04-25T21:40:14.792Z,101553.78
2023-04-25T21:42:42.467Z,101553.41
2023-04-25T21:45:10.207Z,101552.31
2023-04-25T21:47:37.198Z,101558.03
2023-04-25T21:50:04.772Z,101565.63
2023-04-25T21:52:32.034Z,101573.81
2023-04-25T21:55:00.606Z,101566.47
2023-04-25T21:57:27.609Z,101571.75
2023-04-25T21:59:55.673Z,101566.22
2023-04-25T22:02:22.813Z,101578.38
2023-04-25T22:04:49.992Z,101577.09
2023-04-25T22:07:17.190Z,101569.66
2023-04-25T22:09:54.227Z,101569.44
2023-04-25T22:12:23.297Z,101573.72
2023-04-25T22:14:51.045Z,101573.28
2023-04-25T22:17:18.958Z,101571.03
2023-04-25T22:19:46.650Z,101579.47
2023-04-25T22:22:13.331Z,101570.34
2023-04-25T22:24:40.229Z,101566.91
2023-04-25T22:27:06.926Z,101571.03
2023-04-25T22:29:34.192Z,101580.28
2023-04-25T22:32:01.917Z,101565.53
2023-04-25T22:34:28.833Z,101579.34
2023-04-25T22:36:55.866Z,101575.56
2023-04-25T22:39:23.261Z,101577.56
2023-04-25T22:41:50.088Z,101580.91
2023-04-25T22:44:16.834Z,101574.75
2023-04-25T22:46:43.876Z,101573.28
2023-04-25T22:49:10.859Z,101579.13
2023-04-25T22:51:37.849Z,101576.31
2023-04-25T22:54:05.482Z,101580.38
2023-04-25T22:56:32.748Z,101580.91
2023-04-25T22:58:59.568Z,101588.41
2023-04-25T23:01:28.014Z,101594.88
2023-04-25T23:03:55.180Z,101595.72
2023-04-25T23:06:22.884Z,101591.34
2023-04-25T23:08:49.789Z,101593.69
2023-04-25T23:11:16.782Z,101590.41
2023-04-25T23:13:43.706Z,101597.63
2023-04-25T23:16:10.952Z,101592.16
2023-04-25T23:18:39.486Z,101593.53
2023-04-25T23:21:09.543Z,101597.44
2023-04-25T23:23:36.583Z,101593.81
2023-04-25T23:26:10.318Z,101595.72
2023-04-25T23:28:42.003Z,101594.44
2023-04-25T23:31:10.420Z,101595.03
2023-04-25T23:33:37.336Z,101599.97
2023-04-25T23:36:04.438Z,101604.19
2023-04-25T23:38:32.177Z,101595.31
2023-04-25T23:40:58.934Z,101594.03
2023-04-25T23:43:25.635Z,101591.53
2023-04-25T23:45:54.143Z,101591.72
2023-04-25T23:48:21.010Z,101589.56
2023-04-25T23:50:47.887Z,101590.13
2023-04-25T23:53:14.727Z,101582.41
2023-04-25T23:55:41.709Z,101583.03
2023-04-25T23:58:08.517Z,101579.84
